createdAt,value
2019-01-13T00:01:55.932Z,10.23
2019-01-13T00:04:25.068Z,11.47
2019-01-13T00:06:54.778Z,11.67
2019-01-13T00:09:23.887Z,11.63
2019-01-13T00:11:53.826Z,11.03
2019-01-13T00:14:22.954Z,10.27
2019-01-13T00:16:52.071Z,11.60
2019-01-13T00:19:21.280Z,12.50
2019-01-13T00:21:50.426Z,12.40
2019-01-13T00:24:19.564Z,13.07
2019-01-13T00:26:48.735Z,10.90
2019-01-13T00:29:17.828Z,10.37
2019-01-13T00:31:46.928Z,11.43
2019-01-13T00:34:16.085Z,12.13
2019-01-13T00:36:45.189Z,13.33
2019-01-13T00:39:14.286Z,15.90
2019-01-13T00:41:43.408Z,14.63
2019-01-13T00:44:12.522Z,12.67
2019-01-13T00:46:41.713Z,13.87
2019-01-13T00:49:10.808Z,18.77
2019-01-13T00:51:40.013Z,12.80
2019-01-13T00:54:09.139Z,10.50
2019-01-13T00:56:38.266Z,12.03
2019-01-13T00:59:07.358Z,13.17
2019-01-13T01:01:36.475Z,16.40
2019-01-13T01:04:05.801Z,14.23
2019-01-13T01:06:34.973Z,16.17
2019-01-13T01:09:05.686Z,12.10
2019-01-13T01:11:34.870Z,17.10
2019-01-13T01:14:04.071Z,15.40
2019-01-13T01:16:33.157Z,15.90
2019-01-13T01:19:02.448Z,16.87
2019-01-13T01:21:31.561Z,17.87
2019-01-13T01:24:00.691Z,15.37
2019-01-13T01:26:29.857Z,16.90
2019-01-13T01:28:58.930Z,14.90
2019-01-13T01:31:28.021Z,12.60
2019-01-13T01:33:57.137Z,11.73
2019-01-13T01:36:26.247Z,10.97
2019-01-13T01:38:55.347Z,17.23
2019-01-13T01:41:24.457Z,13.27
2019-01-13T01:43:53.541Z,15.00
2019-01-13T01:46:22.639Z,13.43
2019-01-13T01:48:51.739Z,17.77
2019-01-13T01:51:20.864Z,15.67
2019-01-13T01:53:49.969Z,15.67
2019-01-13T01:56:19.099Z,14.17
2019-01-13T01:58:48.189Z,12.27
2019-01-13T02:01:17.257Z,12.87
2019-01-13T02:03:46.362Z,15.10
2019-01-13T02:06:15.431Z,12.63
2019-01-13T02:08:44.631Z,12.77
2019-01-13T02:11:13.719Z,13.00
2019-01-13T02:13:42.843Z,16.57
2019-01-13T02:16:11.944Z,12.93
2019-01-13T02:18:41.079Z,11.70
2019-01-13T02:21:10.212Z,12.60
2019-01-13T02:23:39.317Z,11.67
2019-01-13T02:26:08.402Z,12.80
2019-01-13T02:28:37.479Z,13.53
2019-01-13T02:31:06.570Z,14.90
2019-01-13T02:33:35.658Z,14.00
2019-01-13T02:36:04.767Z,12.77
2019-01-13T02:38:33.859Z,10.10
2019-01-13T02:41:03.032Z,14.13
2019-01-13T02:43:32.103Z,12.30
2019-01-13T02:46:01.224Z,12.40
2019-01-13T02:48:30.456Z,9.37
2019-01-13T02:50:59.536Z,10.27
2019-01-13T02:53:28.631Z,9.93
2019-01-13T02:55:57.703Z,9.10
2019-01-13T02:58:26.793Z,13.90
2019-01-13T03:00:57.222Z,9.57
2019-01-13T03:03:26.639Z,10.80
2019-01-13T03:05:55.748Z,7.63
2019-01-13T03:08:24.829Z,7.47
2019-01-13T03:10:53.918Z,7.33
2019-01-13T03:13:22.992Z,7.63
2019-01-13T03:15:52.083Z,8.77
2019-01-13T03:18:21.154Z,9.93
2019-01-13T03:20:50.266Z,8.30
2019-01-13T03:23:19.343Z,7.97
2019-01-13T03:25:48.433Z,9.80
2019-01-13T03:28:17.513Z,11.77
2019-01-13T03:30:46.590Z,10.33
2019-01-13T03:33:15.697Z,10.97
2019-01-13T03:35:45.075Z,10.27
2019-01-13T03:38:14.175Z,9.00
2019-01-13T03:40:43.256Z,13.57
2019-01-13T03:43:12.354Z,8.27
2019-01-13T03:45:41.453Z,10.50
2019-01-13T03:48:10.561Z,12.07
2019-01-13T03:50:39.651Z,10.70
2019-01-13T03:53:08.723Z,13.70
2019-01-13T03:55:37.791Z,10.33
2019-01-13T03:58:06.857Z,8.40
2019-01-13T04:00:35.946Z,12.03
2019-01-13T04:03:05.140Z,13.07
2019-01-13T04:05:34.240Z,12.13
2019-01-13T04:08:03.342Z,11.23
2019-01-13T04:10:32.443Z,12.87
2019-01-13T04:13:01.545Z,12.20
2019-01-13T04:16:00.326Z,13.00
2019-01-13T04:18:29.523Z,8.87
2019-01-13T04:20:58.699Z,11.73
2019-01-13T04:23:27.791Z,11.93
2019-01-13T04:25:57.035Z,14.03
2019-01-13T04:28:26.133Z,12.43
2019-01-13T04:30:55.215Z,15.87
2019-01-13T04:33:24.303Z,12.70
2019-01-13T04:35:53.403Z,14.30
2019-01-13T04:38:22.535Z,17.23
2019-01-13T04:40:51.611Z,11.93
2019-01-13T04:43:20.727Z,12.37
2019-01-13T04:45:49.811Z,12.33
2019-01-13T04:48:18.913Z,13.43
2019-01-13T04:50:47.999Z,12.70
2019-01-13T04:53:17.083Z,10.43
2019-01-13T04:55:46.168Z,12.97
2019-01-13T04:58:15.248Z,11.27
2019-01-13T05:00:44.350Z,9.57
2019-01-13T05:03:13.441Z,12.60
2019-01-13T05:05:42.576Z,12.50
2019-01-13T05:08:11.659Z,10.13
2019-01-13T05:10:41.044Z,10.93
2019-01-13T05:13:10.136Z,11.20
2019-01-13T05:15:39.230Z,9.73
2019-01-13T05:18:08.368Z,8.43
2019-01-13T05:20:37.524Z,11.87
2019-01-13T05:23:06.676Z,10.40
2019-01-13T05:25:35.750Z,8.97
2019-01-13T05:28:04.888Z,7.20
2019-01-13T05:30:33.950Z,7.73
2019-01-13T05:33:03.111Z,11.57
2019-01-13T05:35:32.225Z,9.27
2019-01-13T05:38:01.307Z,7.43
2019-01-13T05:40:30.418Z,9.40
2019-01-13T05:42:59.504Z,7.47
2019-01-13T05:45:28.589Z,9.27
2019-01-13T05:47:57.759Z,6.33
2019-01-13T05:50:26.845Z,8.50
2019-01-13T05:52:56.235Z,6.70
2019-01-13T05:55:25.535Z,9.73
2019-01-13T05:57:54.663Z,7.17
2019-01-13T06:00:26.076Z,6.83
2019-01-13T06:02:55.192Z,10.20
2019-01-13T06:05:24.374Z,7.80
2019-01-13T06:07:53.502Z,7.10
2019-01-13T06:10:22.704Z,6.20
2019-01-13T06:12:51.796Z,5.47
2019-01-13T06:15:24.463Z,5.90
2019-01-13T06:17:53.587Z,5.43
2019-01-13T06:20:26.201Z,6.43
2019-01-13T06:22:55.374Z,4.77
2019-01-13T06:25:24.463Z,5.13
2019-01-13T06:27:53.590Z,5.57
2019-01-13T06:30:24.219Z,9.03
2019-01-13T06:32:53.420Z,4.80
2019-01-13T06:35:22.524Z,7.17
2019-01-13T06:37:51.669Z,5.03
2019-01-13T06:40:22.171Z,4.77
2019-01-13T06:42:51.342Z,3.73
2019-01-13T06:45:27.029Z,3.90
2019-01-13T06:47:56.141Z,3.60
2019-01-13T06:50:25.353Z,4.13
2019-01-13T06:53:13.556Z,3.60
2019-01-13T06:55:42.625Z,3.17
2019-01-13T06:58:11.710Z,3.07
2019-01-13T07:00:40.888Z,2.93
2019-01-13T07:03:10.036Z,3.90
2019-01-13T07:05:39.149Z,2.40
2019-01-13T07:08:08.225Z,3.10
2019-01-13T07:10:37.616Z,2.57
2019-01-13T07:13:08.306Z,2.13
2019-01-13T07:15:37.384Z,3.60
2019-01-13T07:18:06.592Z,2.07
2019-01-13T07:20:35.744Z,3.13
2019-01-13T07:23:04.892Z,1.50
2019-01-13T07:25:33.989Z,1.50
2019-01-13T07:28:03.163Z,1.70
2019-01-13T07:30:32.294Z,1.40
2019-01-13T07:33:01.400Z,1.40
2019-01-13T07:35:30.510Z,2.10
2019-01-13T07:37:59.616Z,1.40
2019-01-13T07:40:28.738Z,1.50
2019-01-13T07:42:57.834Z,1.20
2019-01-13T07:45:28.290Z,1.73
2019-01-13T07:47:57.564Z,1.17
2019-01-13T07:50:26.694Z,1.13
2019-01-13T07:52:56.030Z,1.10
2019-01-13T07:55:25.353Z,2.23
2019-01-13T07:57:54.457Z,1.10
2019-01-13T08:00:34.573Z,1.00
2019-01-13T08:03:05.130Z,1.17
2019-01-13T08:05:34.270Z,1.20
2019-01-13T08:08:03.486Z,1.20
2019-01-13T08:10:32.744Z,1.20
2019-01-13T08:13:01.820Z,1.37
2019-01-13T08:15:30.925Z,1.53
2019-01-13T08:18:00.109Z,1.70
2019-01-13T08:20:30.927Z,1.77
2019-01-13T08:23:00.246Z,2.33
2019-01-13T08:25:29.428Z,2.77
2019-01-13T08:27:58.608Z,2.90
2019-01-13T08:30:27.909Z,2.47
2019-01-13T08:32:57.024Z,2.30
2019-01-13T08:35:26.423Z,2.63
2019-01-13T08:37:55.548Z,3.10
2019-01-13T08:40:24.620Z,2.53
2019-01-13T08:42:53.818Z,2.63
2019-01-13T08:45:22.942Z,2.30
2019-01-13T08:47:52.070Z,2.83
2019-01-13T08:50:25.328Z,11.40
2019-01-13T08:52:54.498Z,3.93
2019-01-13T08:55:26.152Z,3.43
2019-01-13T08:57:55.516Z,2.93
2019-01-13T09:00:42.616Z,3.93
2019-01-13T09:03:11.725Z,2.47
2019-01-13T09:05:40.912Z,2.27
2019-01-13T09:08:10.018Z,2.37
2019-01-13T09:10:39.192Z,2.37
2019-01-13T09:13:08.246Z,2.37
2019-01-13T09:15:37.531Z,1.57
2019-01-13T09:18:06.642Z,1.30
2019-01-13T09:20:35.722Z,2.00
2019-01-13T09:23:05.347Z,1.40
2019-01-13T09:25:36.092Z,1.40
2019-01-13T09:28:06.019Z,1.40
2019-01-13T09:30:35.136Z,1.30
2019-01-13T09:33:05.569Z,3.10
2019-01-13T09:35:34.948Z,1.20
2019-01-13T09:38:04.025Z,1.13
2019-01-13T09:40:33.302Z,1.30
2019-01-13T09:43:03.577Z,1.20
2019-01-13T09:45:32.762Z,2.00
2019-01-13T09:48:01.859Z,3.87
2019-01-13T09:50:30.967Z,3.27
2019-01-13T09:53:00.045Z,7.07
2019-01-13T09:55:29.219Z,7.23
2019-01-13T09:57:58.359Z,2.47
2019-01-13T10:00:32.711Z,2.60
2019-01-13T10:03:01.817Z,4.10
2019-01-13T10:05:30.919Z,3.60
2019-01-13T10:08:00.020Z,4.97
2019-01-13T10:10:29.141Z,5.63
2019-01-13T10:12:58.248Z,6.47
2019-01-13T10:15:27.475Z,4.90
2019-01-13T10:17:58.939Z,3.67
2019-01-13T10:20:28.152Z,4.00
2019-01-13T10:22:57.289Z,2.43
2019-01-13T10:25:26.468Z,5.03
2019-01-13T10:27:55.569Z,2.43
2019-01-13T10:30:27.083Z,2.33
2019-01-13T10:32:56.652Z,2.30
2019-01-13T10:35:25.888Z,1.97
2019-01-13T10:37:55.090Z,2.03
2019-01-13T10:40:26.016Z,2.10
2019-01-13T10:42:55.121Z,2.37
2019-01-13T10:45:24.401Z,3.67
2019-01-13T10:47:53.496Z,2.53
2019-01-13T10:50:27.619Z,2.30
2019-01-13T10:52:58.583Z,1.60
2019-01-13T10:55:27.799Z,2.20
2019-01-13T10:57:56.988Z,2.33
2019-01-13T11:00:31.026Z,2.10
2019-01-13T11:03:02.358Z,2.00
2019-01-13T11:05:30.921Z,2.10
2019-01-13T11:08:00.053Z,2.37
2019-01-13T11:10:29.227Z,2.63
2019-01-13T11:12:58.341Z,2.70
2019-01-13T11:15:27.435Z,2.60
2019-01-13T11:17:56.566Z,4.83
2019-01-13T11:20:31.415Z,3.10
2019-01-13T11:23:00.641Z,3.03
2019-01-13T11:25:29.893Z,2.87
2019-01-13T11:27:59.037Z,2.87
2019-01-13T11:30:28.192Z,3.47
2019-01-13T11:32:57.386Z,3.23
2019-01-13T11:35:26.506Z,3.17
2019-01-13T11:37:55.617Z,3.33
2019-01-13T11:40:26.245Z,3.50
2019-01-13T11:42:55.358Z,3.40
2019-01-13T11:45:24.513Z,7.07
2019-01-13T11:47:53.679Z,4.37
2019-01-13T11:50:23.515Z,4.40
2019-01-13T11:52:52.795Z,5.23
2019-01-13T11:55:22.013Z,3.33
2019-01-13T11:57:51.221Z,4.50
2019-01-13T12:00:32.167Z,3.80
2019-01-13T12:03:06.513Z,5.90
2019-01-13T12:05:32.444Z,4.27
2019-01-13T12:08:01.691Z,5.10
2019-01-13T12:10:30.940Z,6.93
2019-01-13T12:13:00.128Z,5.93
2019-01-13T12:15:29.717Z,6.03
2019-01-13T12:17:58.902Z,5.27
2019-01-13T12:20:28.131Z,5.13
2019-01-13T12:22:57.264Z,9.40
2019-01-13T12:25:26.419Z,6.20
2019-01-13T12:27:55.660Z,5.70
2019-01-13T12:30:27.796Z,12.37
2019-01-13T12:32:57.247Z,6.73
2019-01-13T12:35:26.459Z,9.13
2019-01-13T12:37:55.887Z,6.00
2019-01-13T12:40:26.067Z,8.93
2019-01-13T12:42:55.306Z,6.30
2019-01-13T12:45:24.831Z,7.90
2019-01-13T12:47:54.071Z,6.77
2019-01-13T12:50:28.097Z,9.83
2019-01-13T12:52:57.278Z,9.10
2019-01-13T12:55:28.282Z,11.27
2019-01-13T12:57:57.417Z,10.30
2019-01-13T13:00:26.642Z,11.10
2019-01-13T13:02:57.466Z,10.70
2019-01-13T13:05:26.956Z,12.63
2019-01-13T13:07:56.175Z,12.43
2019-01-13T13:10:28.675Z,14.67
2019-01-13T13:12:57.874Z,12.93
2019-01-13T13:15:27.037Z,18.50
2019-01-13T13:17:56.216Z,11.50
2019-01-13T13:20:28.320Z,15.87
2019-01-13T13:22:57.665Z,14.93
2019-01-13T13:25:31.841Z,10.77
2019-01-13T13:27:57.810Z,16.10
2019-01-13T13:30:27.070Z,12.60
2019-01-13T13:32:56.413Z,12.03
2019-01-13T13:35:25.569Z,12.33
2019-01-13T13:37:54.939Z,12.93
2019-01-13T13:40:24.868Z,50.20
2019-01-13T13:42:54.065Z,13.73
2019-01-13T13:45:23.350Z,18.97
2019-01-13T13:47:52.612Z,13.57
2019-01-13T13:50:24.333Z,13.77
2019-01-13T13:52:54.101Z,8.07
2019-01-13T13:55:23.392Z,7.10
2019-01-13T13:57:53.196Z,9.53
2019-01-13T14:00:24.877Z,9.60
2019-01-13T14:02:54.275Z,10.97
2019-01-13T14:05:23.669Z,9.73
2019-01-13T14:07:52.917Z,11.03
2019-01-13T14:10:25.264Z,9.37
2019-01-13T14:12:54.557Z,6.93
2019-01-13T14:15:23.815Z,8.13
2019-01-13T14:17:52.967Z,6.10
2019-01-13T14:20:22.225Z,6.83
2019-01-13T14:22:51.561Z,6.40
2019-01-13T14:25:21.176Z,9.17
2019-01-13T14:27:50.546Z,5.93
2019-01-13T14:30:41.017Z,4.17
2019-01-13T14:33:10.360Z,5.23
2019-01-13T14:35:39.652Z,5.17
2019-01-13T14:38:09.251Z,6.40
2019-01-13T14:40:38.560Z,6.10
2019-01-13T14:43:09.226Z,3.57
2019-01-13T14:45:38.474Z,5.00
2019-01-13T14:48:07.735Z,4.43
2019-01-13T14:50:37.711Z,3.87
2019-01-13T14:53:07.991Z,3.57
2019-01-13T14:55:37.287Z,4.27
2019-01-13T14:58:07.074Z,6.83
2019-01-13T15:00:36.409Z,6.40
2019-01-13T15:03:06.512Z,5.23
2019-01-13T15:05:35.891Z,3.60
2019-01-13T15:08:05.277Z,4.77
2019-01-13T15:10:34.577Z,5.87
2019-01-13T15:13:03.910Z,4.23
2019-01-13T15:15:33.175Z,6.50
2019-01-13T15:18:02.480Z,3.97
2019-01-13T15:20:31.775Z,9.23
2019-01-13T15:23:01.068Z,5.97
2019-01-13T15:25:32.006Z,5.60
2019-01-13T15:28:01.312Z,4.77
2019-01-13T15:30:39.906Z,6.57
2019-01-13T15:33:10.210Z,6.83
2019-01-13T15:35:39.866Z,7.70
2019-01-13T15:38:10.703Z,6.47
2019-01-13T15:40:41.320Z,6.00
2019-01-13T15:43:12.759Z,6.67
2019-01-13T15:45:44.281Z,5.70
2019-01-13T15:48:13.584Z,10.93
2019-01-13T15:50:42.861Z,8.00
2019-01-13T15:53:12.485Z,7.10
2019-01-13T15:55:43.420Z,4.73
2019-01-13T15:58:12.668Z,6.30
2019-01-13T16:00:41.973Z,6.80
2019-01-13T16:03:11.271Z,4.60
2019-01-13T16:05:41.856Z,6.87
2019-01-13T16:08:11.144Z,6.40
2019-01-13T16:10:40.803Z,6.10
2019-01-13T16:13:10.104Z,8.13
2019-01-13T16:15:39.391Z,6.60
2019-01-13T16:18:09.377Z,5.30
2019-01-13T16:20:40.214Z,4.70
2019-01-13T16:23:09.641Z,7.77
2019-01-13T16:25:38.910Z,4.97
2019-01-13T16:28:08.200Z,4.43
2019-01-13T16:30:37.492Z,4.23
2019-01-13T16:33:07.184Z,4.90
2019-01-13T16:35:36.844Z,2.97
2019-01-13T16:38:06.874Z,7.90
2019-01-13T16:40:36.268Z,4.83
2019-01-13T16:43:05.720Z,3.70
2019-01-13T16:45:34.970Z,3.90
2019-01-13T16:48:04.368Z,3.30
2019-01-13T16:50:33.612Z,2.80
2019-01-13T16:53:05.937Z,3.20
2019-01-13T16:55:33.951Z,2.80
2019-01-13T16:58:03.274Z,4.20
2019-01-13T17:00:32.840Z,2.87
2019-01-13T17:03:02.100Z,4.63
2019-01-13T17:05:33.833Z,3.97
2019-01-13T17:08:03.216Z,4.17
2019-01-13T17:10:32.551Z,5.20
2019-01-13T17:13:01.846Z,5.97
2019-01-13T17:15:33.350Z,23.90
2019-01-13T17:18:12.376Z,14.37
2019-01-13T17:20:41.653Z,8.13
2019-01-13T17:23:10.915Z,5.90
2019-01-13T17:25:40.212Z,3.03
2019-01-13T17:28:09.575Z,3.83
2019-01-13T17:30:40.138Z,5.93
2019-01-13T17:33:10.313Z,3.73
2019-01-13T17:35:40.941Z,3.47
2019-01-13T17:38:10.229Z,2.77
2019-01-13T17:40:42.035Z,3.40
2019-01-13T17:43:11.315Z,5.60
2019-01-13T17:45:40.924Z,7.73
2019-01-13T17:48:10.597Z,4.63
2019-01-13T17:50:41.767Z,4.30
2019-01-13T17:53:11.517Z,6.07
2019-01-13T17:55:41.978Z,23.10
2019-01-13T17:58:11.794Z,7.20
2019-01-13T18:00:53.403Z,2.10
2019-01-13T18:03:32.223Z,1.77
2019-01-13T18:06:01.307Z,1.97
2019-01-13T18:08:35.085Z,2.73
2019-01-13T18:11:04.459Z,2.10
2019-01-13T18:13:33.765Z,2.37
2019-01-13T18:16:05.563Z,2.30
2019-01-13T18:18:35.175Z,3.87
2019-01-13T18:21:05.468Z,2.43
2019-01-13T18:23:36.393Z,2.70
2019-01-13T18:26:05.979Z,3.50
2019-01-13T18:28:35.725Z,2.77
2019-01-13T18:31:05.439Z,3.13
2019-01-13T18:33:36.720Z,3.63
2019-01-13T18:36:06.084Z,2.43
2019-01-13T18:38:35.483Z,2.50
2019-01-13T18:41:05.129Z,2.00
2019-01-13T18:43:34.813Z,2.33
2019-01-13T18:46:06.214Z,2.33
2019-01-13T18:48:35.859Z,2.40
2019-01-13T18:51:06.361Z,56.63
2019-01-13T18:53:36.375Z,7.60
2019-01-13T18:56:06.125Z,8.50
2019-01-13T18:58:35.661Z,2.40
2019-01-13T19:01:06.039Z,2.27
2019-01-13T19:03:35.637Z,3.03
2019-01-13T19:06:05.201Z,2.73
2019-01-13T19:08:36.552Z,2.23
2019-01-13T19:11:33.410Z,2.60
2019-01-13T19:14:38.234Z,2.27
2019-01-13T19:17:15.567Z,1.70
2019-01-13T19:20:34.271Z,1.90
2019-01-13T19:23:08.750Z,3.50
2019-01-13T19:25:39.384Z,3.27
2019-01-13T19:28:10.727Z,2.60
2019-01-13T19:30:42.315Z,2.43
2019-01-13T19:33:13.857Z,3.57
2019-01-13T19:35:44.791Z,3.00
2019-01-13T19:38:16.173Z,3.10
2019-01-13T19:40:45.497Z,2.90
2019-01-13T19:43:16.683Z,3.83
2019-01-13T19:45:46.421Z,3.37
2019-01-13T19:48:17.887Z,5.23
2019-01-13T19:50:47.549Z,3.63
2019-01-13T19:53:17.753Z,4.43
2019-01-13T19:55:47.469Z,4.37
2019-01-13T19:58:17.085Z,4.40
2019-01-13T20:00:46.887Z,4.40
2019-01-13T20:03:16.283Z,7.87
2019-01-13T20:05:46.896Z,5.63
2019-01-13T20:08:16.586Z,5.40
2019-01-13T20:10:46.988Z,5.63
2019-01-13T20:13:16.670Z,6.83
2019-01-13T20:15:45.922Z,11.33
2019-01-13T20:18:15.322Z,7.43
2019-01-13T20:20:46.557Z,26.50
2019-01-13T20:23:19.558Z,40.20
2019-01-13T20:25:50.317Z,15.63
2019-01-13T20:28:21.116Z,8.13
2019-01-13T20:30:50.811Z,8.23
2019-01-13T20:33:22.816Z,6.33
2019-01-13T20:35:53.723Z,6.77
2019-01-13T20:38:24.078Z,7.00
2019-01-13T20:40:55.747Z,7.70
2019-01-13T20:43:28.912Z,11.37
2019-01-13T20:45:59.791Z,10.10
2019-01-13T20:48:34.281Z,6.77
2019-01-13T20:51:06.367Z,7.80
2019-01-13T20:53:37.642Z,6.43
2019-01-13T20:56:08.959Z,7.23
2019-01-13T20:58:41.798Z,5.53
2019-01-13T21:01:11.481Z,8.40
2019-01-13T21:03:43.415Z,6.90
2019-01-13T21:06:13.077Z,8.17
2019-01-13T21:08:42.370Z,6.47
2019-01-13T21:11:11.749Z,7.20
2019-01-13T21:13:41.390Z,7.40
2019-01-13T21:16:10.695Z,5.73
2019-01-13T21:18:41.378Z,6.47
2019-01-13T21:21:10.801Z,9.03
2019-01-13T21:23:40.185Z,6.23
2019-01-13T21:26:09.559Z,8.47
2019-01-13T21:28:42.581Z,7.07
2019-01-13T21:31:11.985Z,8.10
2019-01-13T21:33:41.307Z,9.47
2019-01-13T21:36:11.502Z,10.03
2019-01-13T21:38:41.370Z,7.77
2019-01-13T21:41:11.692Z,8.97
2019-01-13T21:43:42.675Z,11.60
2019-01-13T21:46:12.482Z,11.93
2019-01-13T21:48:42.934Z,7.07
2019-01-13T21:51:12.704Z,7.33
2019-01-13T21:53:43.232Z,5.93
2019-01-13T21:56:12.666Z,8.03
2019-01-13T21:58:41.961Z,6.67
2019-01-13T22:01:11.233Z,8.10
2019-01-13T22:03:40.525Z,5.90
2019-01-13T22:06:10.001Z,7.47
2019-01-13T22:08:39.563Z,4.73
2019-01-13T22:11:08.844Z,6.00
2019-01-13T22:13:38.030Z,4.87
2019-01-13T22:16:07.303Z,4.33
2019-01-13T22:18:36.750Z,5.93
2019-01-13T22:21:05.945Z,2.90
2019-01-13T22:23:35.184Z,3.90
2019-01-13T22:26:04.421Z,4.73
2019-01-13T22:28:33.621Z,4.43
2019-01-13T22:31:02.833Z,3.10
2019-01-13T22:33:32.065Z,6.13
2019-01-13T22:36:01.145Z,5.23
2019-01-13T22:38:30.262Z,5.17
2019-01-13T22:40:59.415Z,3.03
2019-01-13T22:43:28.525Z,3.50
2019-01-13T22:45:57.627Z,4.00
2019-01-13T22:48:26.743Z,4.17
2019-01-13T22:50:56.425Z,3.07
2019-01-13T22:53:25.635Z,1.70
2019-01-13T22:55:54.765Z,2.40
2019-01-13T22:58:23.847Z,4.07
2019-01-13T23:01:21.275Z,2.00
2019-01-13T23:03:50.465Z,3.63
2019-01-13T23:06:19.639Z,4.87
2019-01-13T23:08:48.721Z,3.43
2019-01-13T23:11:17.884Z,3.47
2019-01-13T23:13:46.991Z,3.60
2019-01-13T23:16:16.147Z,2.97
2019-01-13T23:18:45.259Z,5.63
2019-01-13T23:21:14.355Z,3.53
2019-01-13T23:23:43.447Z,3.97
2019-01-13T23:26:12.526Z,3.10
2019-01-13T23:28:41.714Z,6.10
2019-01-13T23:31:10.847Z,3.60
2019-01-13T23:33:39.959Z,4.67
2019-01-13T23:36:09.055Z,6.47
2019-01-13T23:38:38.161Z,3.33
2019-01-13T23:41:07.293Z,3.60
2019-01-13T23:43:36.479Z,3.67
2019-01-13T23:46:05.584Z,4.03
2019-01-13T23:48:34.690Z,3.20
2019-01-13T23:51:03.889Z,2.07
2019-01-13T23:53:33.065Z,2.70
2019-01-13T23:56:02.155Z,5.23
2019-01-13T23:58:31.248Z,4.47
